sensor_id;sensor_type;location;lat;lon;timestamp;P1;durP1;ratioP1;P2;durP2;ratioP2
21339;SDS011;10828;47.064;15.422;2023-07-29T00:01:37;5.77;;;2.90;;
21339;SDS011;10828;47.064;15.422;2023-07-29T00:04:06;8.00;;;2.87;;
21339;SDS011;10828;47.064;15.422;2023-07-29T00:06:34;6.57;;;3.10;;
21339;SDS011;10828;47.064;15.422;2023-07-29T00:11:42;8.03;;;3.37;;
21339;SDS011;10828;47.064;15.422;2023-07-29T00:14:09;6.33;;;3.03;;
21339;SDS011;10828;47.064;15.422;2023-07-29T00:16:44;5.90;;;3.03;;
21339;SDS011;10828;47.064;15.422;2023-07-29T00:19:15;6.47;;;2.97;;
21339;SDS011;10828;47.064;15.422;2023-07-29T00:21:42;8.60;;;3.00;;
21339;SDS011;10828;47.064;15.422;2023-07-29T17:04:50;4.97;;;2.13;;
21339;SDS011;10828;47.064;15.422;2023-07-29T17:07:16;5.68;;;2.33;;
21339;SDS011;10828;47.064;15.422;2023-07-29T17:09:41;5.50;;;2.10;;
21339;SDS011;10828;47.064;15.422;2023-07-29T17:12:07;5.93;;;2.30;;
21339;SDS011;10828;47.064;15.422;2023-07-29T17:14:32;5.57;;;2.00;;
21339;SDS011;10828;47.064;15.422;2023-07-29T17:17:05;7.05;;;2.28;;
21339;SDS011;10828;47.064;15.422;2023-07-29T20:11:02;3.83;;;1.27;;
21339;SDS011;10828;47.064;15.422;2023-07-29T20:13:29;8.80;;;1.43;;
21339;SDS011;10828;47.064;15.422;2023-07-29T20:15:55;2.53;;;0.90;;
21339;SDS011;10828;47.064;15.422;2023-07-29T20:18:21;4.40;;;1.20;;
21339;SDS011;10828;47.064;15.422;2023-07-29T20:20:51;5.67;;;1.30;;
21339;SDS011;10828;47.064;15.422;2023-07-29T20:23:17;2.93;;;0.90;;
21339;SDS011;10828;47.064;15.422;2023-07-29T20:30:53;3.47;;;1.33;;
21339;SDS011;10828;47.064;15.422;2023-07-29T20:33:22;3.43;;;1.20;;
21339;SDS011;10828;47.064;15.422;2023-07-29T20:35:56;4.43;;;1.43;;
21339;SDS011;10828;47.064;15.422;2023-07-29T20:38:34;4.27;;;1.53;;
21339;SDS011;10828;47.064;15.422;2023-07-29T20:41:03;3.23;;;1.60;;
21339;SDS011;10828;47.064;15.422;2023-07-29T20:43:30;3.87;;;1.47;;
21339;SDS011;10828;47.064;15.422;2023-07-29T20:45:56;4.17;;;1.40;;
21339;SDS011;10828;47.064;15.422;2023-07-29T20:48:25;3.20;;;1.30;;
21339;SDS011;10828;47.064;15.422;2023-07-29T20:51:22;4.87;;;1.60;;
21339;SDS011;10828;47.064;15.422;2023-07-29T20:56:18;3.50;;;1.20;;
21339;SDS011;10828;47.064;15.422;2023-07-29T20:58:44;3.27;;;1.33;;
21339;SDS011;10828;47.064;15.422;2023-07-29T21:01:12;4.47;;;1.30;;
21339;SDS011;10828;47.064;15.422;2023-07-29T21:03:38;3.67;;;1.20;;
21339;SDS011;10828;47.064;15.422;2023-07-29T21:06:12;2.77;;;1.23;;
21339;SDS011;10828;47.064;15.422;2023-07-29T21:08:38;2.60;;;1.17;;
21339;SDS011;10828;47.064;15.422;2023-07-29T21:11:04;2.50;;;1.13;;
21339;SDS011;10828;47.064;15.422;2023-07-29T21:13:31;3.77;;;1.43;;
21339;SDS011;10828;47.064;15.422;2023-07-29T21:15:57;5.27;;;1.63;;
21339;SDS011;10828;47.064;15.422;2023-07-29T21:18:32;3.73;;;1.57;;
21339;SDS011;10828;47.064;15.422;2023-07-29T21:20:57;2.93;;;1.20;;
21339;SDS011;10828;47.064;15.422;2023-07-29T21:23:24;3.40;;;1.50;;
21339;SDS011;10828;47.064;15.422;2023-07-29T21:25:53;3.43;;;1.40;;
21339;SDS011;10828;47.064;15.422;2023-07-29T21:28:18;4.13;;;1.30;;
21339;SDS011;10828;47.064;15.422;2023-07-29T21:30:45;3.80;;;1.47;;
21339;SDS011;10828;47.064;15.422;2023-07-29T21:33:13;2.93;;;1.30;;
21339;SDS011;10828;47.064;15.422;2023-07-29T21:35:40;3.00;;;1.40;;
21339;SDS011;10828;47.064;15.422;2023-07-29T21:38:05;4.67;;;1.30;;
21339;SDS011;10828;47.064;15.422;2023-07-29T21:40:31;3.97;;;1.17;;
21339;SDS011;10828;47.064;15.422;2023-07-29T21:42:57;2.37;;;0.97;;
21339;SDS011;10828;47.064;15.422;2023-07-29T21:45:26;2.33;;;1.00;;
21339;SDS011;10828;47.064;15.422;2023-07-29T21:47:52;2.90;;;1.17;;
21339;SDS011;10828;47.064;15.422;2023-07-29T21:50:21;2.90;;;0.93;;
21339;SDS011;10828;47.064;15.422;2023-07-29T21:52:46;3.77;;;0.90;;
21339;SDS011;10828;47.064;15.422;2023-07-29T21:55:17;2.60;;;1.00;;
21339;SDS011;10828;47.064;15.422;2023-07-29T21:57:44;2.70;;;0.93;;
21339;SDS011;10828;47.064;15.422;2023-07-29T22:00:12;1.50;;;0.80;;
21339;SDS011;10828;47.064;15.422;2023-07-29T22:02:40;6.73;;;1.33;;
21339;SDS011;10828;47.064;15.422;2023-07-29T22:05:08;3.13;;;0.90;;
21339;SDS011;10828;47.064;15.422;2023-07-29T22:07:47;5.60;;;1.40;;
21339;SDS011;10828;47.064;15.422;2023-07-29T22:10:13;4.53;;;1.47;;
21339;SDS011;10828;47.064;15.422;2023-07-29T22:12:40;4.37;;;1.57;;
21339;SDS011;10828;47.064;15.422;2023-07-29T22:15:08;5.40;;;1.63;;
21339;SDS011;10828;47.064;15.422;2023-07-29T22:17:35;4.17;;;1.57;;
21339;SDS011;10828;47.064;15.422;2023-07-29T22:20:03;6.77;;;1.70;;
21339;SDS011;10828;47.064;15.422;2023-07-29T22:22:38;4.63;;;1.43;;
21339;SDS011;10828;47.064;15.422;2023-07-29T22:25:12;3.93;;;1.33;;
21339;SDS011;10828;47.064;15.422;2023-07-29T22:27:38;4.03;;;1.40;;
21339;SDS011;10828;47.064;15.422;2023-07-29T22:30:06;2.60;;;1.20;;
21339;SDS011;10828;47.064;15.422;2023-07-29T22:32:38;2.83;;;1.50;;
21339;SDS011;10828;47.064;15.422;2023-07-29T22:35:06;2.27;;;1.20;;
21339;SDS011;10828;47.064;15.422;2023-07-29T22:37:33;3.00;;;1.50;;
21339;SDS011;10828;47.064;15.422;2023-07-29T22:40:00;3.23;;;1.17;;
21339;SDS011;10828;47.064;15.422;2023-07-29T22:42:25;2.00;;;1.10;;
21339;SDS011;10828;47.064;15.422;2023-07-29T22:45:04;7.03;;;1.30;;
21339;SDS011;10828;47.064;15.422;2023-07-29T22:47:31;2.47;;;1.37;;
21339;SDS011;10828;47.064;15.422;2023-07-29T22:49:58;5.07;;;1.57;;
21339;SDS011;10828;47.064;15.422;2023-07-29T22:52:23;3.97;;;1.33;;
21339;SDS011;10828;47.064;15.422;2023-07-29T22:54:54;4.57;;;1.40;;
21339;SDS011;10828;47.064;15.422;2023-07-29T22:57:23;5.53;;;1.50;;
21339;SDS011;10828;47.064;15.422;2023-07-29T22:59:49;2.00;;;1.20;;
21339;SDS011;10828;47.064;15.422;2023-07-29T23:02:16;4.13;;;1.57;;
21339;SDS011;10828;47.064;15.422;2023-07-29T23:04:46;3.63;;;1.63;;
21339;SDS011;10828;47.064;15.422;2023-07-29T23:07:12;3.70;;;1.30;;
21339;SDS011;10828;47.064;15.422;2023-07-29T23:09:38;2.20;;;1.40;;
21339;SDS011;10828;47.064;15.422;2023-07-29T23:12:06;3.80;;;1.40;;
21339;SDS011;10828;47.064;15.422;2023-07-29T23:14:32;2.97;;;1.50;;
21339;SDS011;10828;47.064;15.422;2023-07-29T23:16:57;3.83;;;1.60;;
21339;SDS011;10828;47.064;15.422;2023-07-29T23:19:28;3.57;;;1.60;;
21339;SDS011;10828;47.064;15.422;2023-07-29T23:21:56;4.33;;;1.50;;
21339;SDS011;10828;47.064;15.422;2023-07-29T23:24:22;3.57;;;1.30;;
21339;SDS011;10828;47.064;15.422;2023-07-29T23:26:48;4.10;;;2.13;;
21339;SDS011;10828;47.064;15.422;2023-07-29T23:29:14;3.30;;;1.60;;
21339;SDS011;10828;47.064;15.422;2023-07-29T23:31:39;2.43;;;1.20;;
21339;SDS011;10828;47.064;15.422;2023-07-29T23:34:05;4.20;;;1.73;;
21339;SDS011;10828;47.064;15.422;2023-07-29T23:36:32;3.37;;;1.30;;
21339;SDS011;10828;47.064;15.422;2023-07-29T23:39:00;2.33;;;1.30;;
21339;SDS011;10828;47.064;15.422;2023-07-29T23:41:27;4.37;;;1.53;;
21339;SDS011;10828;47.064;15.422;2023-07-29T23:43:55;2.93;;;1.43;;
21339;SDS011;10828;47.064;15.422;2023-07-29T23:46:28;5.93;;;1.50;;
21339;SDS011;10828;47.064;15.422;2023-07-29T23:48:54;3.83;;;1.53;;
21339;SDS011;10828;47.064;15.422;2023-07-29T23:51:22;2.70;;;1.47;;
21339;SDS011;10828;47.064;15.422;2023-07-29T23:53:50;3.63;;;1.50;;
21339;SDS011;10828;47.064;15.422;2023-07-29T23:56:16;2.30;;;1.30;;
21339;SDS011;10828;47.064;15.422;2023-07-29T23:58:43;3.40;;;1.37;;
